sensor_id;sensor_type;location;lat;lon;timestamp;P1;durP1;ratioP1;P2;durP2;ratioP2
1336;SDS011;662;48.814;9.318;2023-09-19T00:00:18;1.17;;;1.07;;
1336;SDS011;662;48.814;9.318;2023-09-19T00:03:06;1.40;;;1.20;;
1336;SDS011;662;48.814;9.318;2023-09-19T00:05:33;1.10;;;1.00;;
1336;SDS011;662;48.814;9.318;2023-09-19T00:08:00;0.90;;;0.90;;
1336;SDS011;662;48.814;9.318;2023-09-19T00:10:30;1.00;;;1.00;;
1336;SDS011;662;48.814;9.318;2023-09-19T00:13:00;1.10;;;0.90;;
1336;SDS011;662;48.814;9.318;2023-09-19T00:15:30;1.20;;;1.10;;
1336;SDS011;662;48.814;9.318;2023-09-19T00:18:00;1.30;;;1.20;;
1336;SDS011;662;48.814;9.318;2023-09-19T00:20:26;1.10;;;1.00;;
1336;SDS011;662;48.814;9.318;2023-09-19T00:22:51;1.30;;;1.20;;
1336;SDS011;662;48.814;9.318;2023-09-19T00:25:18;2.90;;;1.07;;
1336;SDS011;662;48.814;9.318;2023-09-19T00:27:45;1.17;;;0.97;;
1336;SDS011;662;48.814;9.318;2023-09-19T00:30:14;1.20;;;0.90;;
1336;SDS011;662;48.814;9.318;2023-09-19T00:32:41;1.77;;;1.00;;
1336;SDS011;662;48.814;9.318;2023-09-19T00:35:08;1.20;;;0.83;;
1336;SDS011;662;48.814;9.318;2023-09-19T00:37:35;0.93;;;0.90;;
1336;SDS011;662;48.814;9.318;2023-09-19T00:40:02;1.10;;;0.90;;
1336;SDS011;662;48.814;9.318;2023-09-19T00:42:47;1.10;;;1.00;;
1336;SDS011;662;48.814;9.318;2023-09-19T00:45:14;3.10;;;1.20;;
1336;SDS011;662;48.814;9.318;2023-09-19T00:47:45;2.07;;;0.87;;
1336;SDS011;662;48.814;9.318;2023-09-19T00:50:16;1.23;;;1.10;;
1336;SDS011;662;48.814;9.318;2023-09-19T00:52:47;1.07;;;1.00;;
1336;SDS011;662;48.814;9.318;2023-09-19T00:55:15;1.20;;;0.80;;
1336;SDS011;662;48.814;9.318;2023-09-19T00:57:41;1.33;;;1.10;;
1336;SDS011;662;48.814;9.318;2023-09-19T01:00:09;1.40;;;1.20;;
1336;SDS011;662;48.814;9.318;2023-09-19T01:02:37;1.70;;;1.57;;
1336;SDS011;662;48.814;9.318;2023-09-19T01:05:03;1.33;;;1.00;;
1336;SDS011;662;48.814;9.318;2023-09-19T01:07:30;1.70;;;1.00;;
1336;SDS011;662;48.814;9.318;2023-09-19T01:09:57;1.23;;;0.83;;
1336;SDS011;662;48.814;9.318;2023-09-19T01:15:28;2.93;;;1.13;;
1336;SDS011;662;48.814;9.318;2023-09-19T01:20:51;1.10;;;1.00;;
1336;SDS011;662;48.814;9.318;2023-09-19T01:23:29;1.80;;;0.80;;
1336;SDS011;662;48.814;9.318;2023-09-19T01:26:36;1.17;;;0.80;;
1336;SDS011;662;48.814;9.318;2023-09-19T01:32:04;1.27;;;1.17;;
1336;SDS011;662;48.814;9.318;2023-09-19T01:37:10;0.70;;;0.70;;
1336;SDS011;662;48.814;9.318;2023-09-19T01:39:36;1.87;;;0.80;;
1336;SDS011;662;48.814;9.318;2023-09-19T01:42:09;1.10;;;1.00;;
1336;SDS011;662;48.814;9.318;2023-09-19T01:45:06;1.60;;;0.60;;
1336;SDS011;662;48.814;9.318;2023-09-19T01:50:34;0.77;;;0.77;;
1336;SDS011;662;48.814;9.318;2023-09-19T01:53:23;1.30;;;0.87;;
1336;SDS011;662;48.814;9.318;2023-09-19T01:55:55;1.00;;;0.90;;
1336;SDS011;662;48.814;9.318;2023-09-19T01:58:42;1.27;;;1.00;;
1336;SDS011;662;48.814;9.318;2023-09-19T02:01:15;0.90;;;0.90;;
1336;SDS011;662;48.814;9.318;2023-09-19T02:03:43;1.23;;;0.90;;
1336;SDS011;662;48.814;9.318;2023-09-19T02:06:17;1.00;;;0.90;;
1336;SDS011;662;48.814;9.318;2023-09-19T02:08:44;1.10;;;1.00;;
1336;SDS011;662;48.814;9.318;2023-09-19T02:11:10;1.30;;;0.83;;
1336;SDS011;662;48.814;9.318;2023-09-19T02:13:37;0.80;;;0.80;;
1336;SDS011;662;48.814;9.318;2023-09-19T02:16:03;0.97;;;0.80;;
1336;SDS011;662;48.814;9.318;2023-09-19T02:18:29;1.00;;;0.80;;
1336;SDS011;662;48.814;9.318;2023-09-19T02:20:55;1.20;;;1.07;;
1336;SDS011;662;48.814;9.318;2023-09-19T02:23:23;1.60;;;0.77;;
1336;SDS011;662;48.814;9.318;2023-09-19T02:25:56;1.30;;;0.80;;
1336;SDS011;662;48.814;9.318;2023-09-19T02:28:29;1.07;;;0.97;;
1336;SDS011;662;48.814;9.318;2023-09-19T02:30:58;1.00;;;0.90;;
1336;SDS011;662;48.814;9.318;2023-09-19T02:33:23;0.80;;;0.80;;
1336;SDS011;662;48.814;9.318;2023-09-19T02:35:49;0.87;;;0.80;;
1336;SDS011;662;48.814;9.318;2023-09-19T02:38:19;1.17;;;0.93;;
1336;SDS011;662;48.814;9.318;2023-09-19T02:40:49;0.90;;;0.90;;
1336;SDS011;662;48.814;9.318;2023-09-19T02:43:15;1.03;;;1.00;;
1336;SDS011;662;48.814;9.318;2023-09-19T02:45:42;0.80;;;0.70;;
1336;SDS011;662;48.814;9.318;2023-09-19T02:48:07;1.13;;;1.00;;
1336;SDS011;662;48.814;9.318;2023-09-19T02:50:33;0.80;;;0.80;;
1336;SDS011;662;48.814;9.318;2023-09-19T02:52:59;1.10;;;1.00;;
1336;SDS011;662;48.814;9.318;2023-09-19T02:55:24;0.90;;;0.90;;
1336;SDS011;662;48.814;9.318;2023-09-19T02:57:53;1.10;;;1.00;;
1336;SDS011;662;48.814;9.318;2023-09-19T03:00:22;1.50;;;1.00;;
1336;SDS011;662;48.814;9.318;2023-09-19T03:02:49;0.80;;;0.80;;
1336;SDS011;662;48.814;9.318;2023-09-19T03:05:16;1.13;;;0.97;;
1336;SDS011;662;48.814;9.318;2023-09-19T03:07:43;1.73;;;1.10;;
1336;SDS011;662;48.814;9.318;2023-09-19T03:10:10;2.00;;;0.93;;
1336;SDS011;662;48.814;9.318;2023-09-19T03:12:36;2.50;;;0.77;;
1336;SDS011;662;48.814;9.318;2023-09-19T03:15:03;1.10;;;1.00;;
1336;SDS011;662;48.814;9.318;2023-09-19T03:17:29;1.20;;;0.80;;
1336;SDS011;662;48.814;9.318;2023-09-19T03:19:55;0.80;;;0.80;;
1336;SDS011;662;48.814;9.318;2023-09-19T03:22:22;1.53;;;1.00;;
1336;SDS011;662;48.814;9.318;2023-09-19T03:24:49;0.90;;;0.90;;
1336;SDS011;662;48.814;9.318;2023-09-19T03:27:15;0.90;;;0.90;;
1336;SDS011;662;48.814;9.318;2023-09-19T03:29:41;1.00;;;0.83;;
1336;SDS011;662;48.814;9.318;2023-09-19T03:32:07;1.07;;;0.97;;
1336;SDS011;662;48.814;9.318;2023-09-19T03:34:35;4.13;;;1.23;;
1336;SDS011;662;48.814;9.318;2023-09-19T03:37:03;3.03;;;1.00;;
1336;SDS011;662;48.814;9.318;2023-09-19T03:39:29;1.10;;;1.00;;
1336;SDS011;662;48.814;9.318;2023-09-19T03:41:54;1.00;;;0.90;;
1336;SDS011;662;48.814;9.318;2023-09-19T03:44:20;1.00;;;0.80;;
1336;SDS011;662;48.814;9.318;2023-09-19T03:46:45;1.20;;;0.80;;
1336;SDS011;662;48.814;9.318;2023-09-19T03:49:11;2.00;;;1.07;;
1336;SDS011;662;48.814;9.318;2023-09-19T03:51:37;1.30;;;0.93;;
1336;SDS011;662;48.814;9.318;2023-09-19T03:54:03;1.50;;;1.07;;
1336;SDS011;662;48.814;9.318;2023-09-19T03:56:29;1.07;;;0.97;;
1336;SDS011;662;48.814;9.318;2023-09-19T03:58:54;1.50;;;0.83;;
1336;SDS011;662;48.814;9.318;2023-09-19T04:01:20;1.17;;;0.97;;
1336;SDS011;662;48.814;9.318;2023-09-19T04:03:46;1.13;;;1.03;;
1336;SDS011;662;48.814;9.318;2023-09-19T04:06:15;1.00;;;0.80;;
1336;SDS011;662;48.814;9.318;2023-09-19T04:08:41;1.10;;;0.93;;
1336;SDS011;662;48.814;9.318;2023-09-19T04:11:08;1.27;;;0.93;;
1336;SDS011;662;48.814;9.318;2023-09-19T04:13:34;1.30;;;1.17;;
1336;SDS011;662;48.814;9.318;2023-09-19T04:16:00;1.43;;;1.33;;
1336;SDS011;662;48.814;9.318;2023-09-19T04:18:25;1.33;;;1.03;;
1336;SDS011;662;48.814;9.318;2023-09-19T04:20:51;1.47;;;1.20;;
1336;SDS011;662;48.814;9.318;2023-09-19T04:23:18;1.70;;;1.10;;
1336;SDS011;662;48.814;9.318;2023-09-19T04:25:46;2.17;;;1.40;;
1336;SDS011;662;48.814;9.318;2023-09-19T04:28:13;1.03;;;1.00;;
1336;SDS011;662;48.814;9.318;2023-09-19T04:30:38;1.90;;;1.20;;
1336;SDS011;662;48.814;9.318;2023-09-19T04:33:07;1.33;;;1.13;;
1336;SDS011;662;48.814;9.318;2023-09-19T04:35:33;1.17;;;1.07;;
1336;SDS011;662;48.814;9.318;2023-09-19T04:38:00;1.47;;;1.13;;
1336;SDS011;662;48.814;9.318;2023-09-19T04:40:26;1.87;;;1.60;;
1336;SDS011;662;48.814;9.318;2023-09-19T04:42:55;1.63;;;1.03;;
1336;SDS011;662;48.814;9.318;2023-09-19T04:45:25;0.87;;;0.87;;
1336;SDS011;662;48.814;9.318;2023-09-19T04:47:52;3.33;;;1.13;;
1336;SDS011;662;48.814;9.318;2023-09-19T04:50:18;2.70;;;1.00;;
1336;SDS011;662;48.814;9.318;2023-09-19T04:52:48;2.40;;;1.30;;
1336;SDS011;662;48.814;9.318;2023-09-19T04:55:15;2.23;;;1.27;;
1336;SDS011;662;48.814;9.318;2023-09-19T04:57:45;3.40;;;1.37;;
1336;SDS011;662;48.814;9.318;2023-09-19T05:00:19;1.70;;;1.13;;
1336;SDS011;662;48.814;9.318;2023-09-19T05:02:52;2.07;;;1.50;;
1336;SDS011;662;48.814;9.318;2023-09-19T05:05:21;2.87;;;1.40;;
1336;SDS011;662;48.814;9.318;2023-09-19T05:07:47;2.70;;;1.87;;
1336;SDS011;662;48.814;9.318;2023-09-19T05:10:13;3.83;;;1.60;;
1336;SDS011;662;48.814;9.318;2023-09-19T05:12:39;1.40;;;1.30;;
1336;SDS011;662;48.814;9.318;2023-09-19T05:15:05;1.23;;;1.13;;
1336;SDS011;662;48.814;9.318;2023-09-19T05:17:34;1.37;;;1.27;;
1336;SDS011;662;48.814;9.318;2023-09-19T05:20:00;1.80;;;1.10;;
1336;SDS011;662;48.814;9.318;2023-09-19T05:22:40;1.30;;;1.20;;
1336;SDS011;662;48.814;9.318;2023-09-19T05:25:08;2.53;;;1.40;;
1336;SDS011;662;48.814;9.318;2023-09-19T05:27:34;1.20;;;1.10;;
1336;SDS011;662;48.814;9.318;2023-09-19T05:29:59;2.30;;;1.67;;
1336;SDS011;662;48.814;9.318;2023-09-19T05:32:25;1.43;;;1.33;;
1336;SDS011;662;48.814;9.318;2023-09-19T05:34:51;1.50;;;1.40;;
1336;SDS011;662;48.814;9.318;2023-09-19T05:37:21;2.73;;;1.80;;
1336;SDS011;662;48.814;9.318;2023-09-19T05:39:48;1.47;;;1.20;;
1336;SDS011;662;48.814;9.318;2023-09-19T05:42:14;2.43;;;1.60;;
1336;SDS011;662;48.814;9.318;2023-09-19T05:44:39;1.33;;;1.20;;
1336;SDS011;662;48.814;9.318;2023-09-19T05:47:05;1.47;;;1.30;;
1336;SDS011;662;48.814;9.318;2023-09-19T05:49:34;1.53;;;1.30;;
1336;SDS011;662;48.814;9.318;2023-09-19T05:52:03;2.17;;;1.80;;
1336;SDS011;662;48.814;9.318;2023-09-19T05:54:32;8.03;;;1.60;;
1336;SDS011;662;48.814;9.318;2023-09-19T05:57:02;1.70;;;1.60;;
1336;SDS011;662;48.814;9.318;2023-09-19T05:59:28;1.70;;;1.40;;
1336;SDS011;662;48.814;9.318;2023-09-19T06:01:54;3.30;;;1.50;;
1336;SDS011;662;48.814;9.318;2023-09-19T06:04:20;1.63;;;1.53;;
1336;SDS011;662;48.814;9.318;2023-09-19T06:06:46;3.13;;;1.90;;
1336;SDS011;662;48.814;9.318;2023-09-19T06:09:14;2.07;;;1.87;;
1336;SDS011;662;48.814;9.318;2023-09-19T06:11:42;3.20;;;1.60;;
1336;SDS011;662;48.814;9.318;2023-09-19T06:14:08;2.17;;;1.97;;
1336;SDS011;662;48.814;9.318;2023-09-19T06:16:35;2.07;;;1.60;;
1336;SDS011;662;48.814;9.318;2023-09-19T06:19:04;2.93;;;2.10;;
1336;SDS011;662;48.814;9.318;2023-09-19T06:21:33;2.90;;;2.17;;
1336;SDS011;662;48.814;9.318;2023-09-19T06:23:59;2.10;;;1.60;;
1336;SDS011;662;48.814;9.318;2023-09-19T06:26:25;2.20;;;2.00;;
1336;SDS011;662;48.814;9.318;2023-09-19T06:28:52;3.83;;;2.03;;
1336;SDS011;662;48.814;9.318;2023-09-19T06:31:17;2.23;;;1.80;;
1336;SDS011;662;48.814;9.318;2023-09-19T06:33:43;3.50;;;2.10;;
1336;SDS011;662;48.814;9.318;2023-09-19T06:36:09;3.03;;;2.10;;
1336;SDS011;662;48.814;9.318;2023-09-19T06:38:35;2.60;;;1.93;;
1336;SDS011;662;48.814;9.318;2023-09-19T06:41:01;3.27;;;2.67;;
1336;SDS011;662;48.814;9.318;2023-09-19T06:43:29;3.60;;;2.50;;
1336;SDS011;662;48.814;9.318;2023-09-19T06:45:59;2.90;;;2.60;;
1336;SDS011;662;48.814;9.318;2023-09-19T06:48:28;3.70;;;2.83;;
1336;SDS011;662;48.814;9.318;2023-09-19T06:50:54;2.03;;;1.63;;
1336;SDS011;662;48.814;9.318;2023-09-19T06:53:21;2.40;;;2.20;;
1336;SDS011;662;48.814;9.318;2023-09-19T06:55:49;4.50;;;2.00;;
1336;SDS011;662;48.814;9.318;2023-09-19T06:58:15;3.30;;;2.00;;
1336;SDS011;662;48.814;9.318;2023-09-19T07:00:42;2.50;;;2.00;;
1336;SDS011;662;48.814;9.318;2023-09-19T07:03:07;4.13;;;2.27;;
1336;SDS011;662;48.814;9.318;2023-09-19T07:05:36;2.40;;;2.10;;
1336;SDS011;662;48.814;9.318;2023-09-19T07:08:04;2.80;;;2.17;;
1336;SDS011;662;48.814;9.318;2023-09-19T07:10:31;3.03;;;2.00;;
1336;SDS011;662;48.814;9.318;2023-09-19T07:13:00;2.07;;;1.83;;
1336;SDS011;662;48.814;9.318;2023-09-19T07:15:28;3.00;;;2.10;;
1336;SDS011;662;48.814;9.318;2023-09-19T07:17:56;3.10;;;1.97;;
1336;SDS011;662;48.814;9.318;2023-09-19T07:20:22;5.20;;;2.30;;
1336;SDS011;662;48.814;9.318;2023-09-19T07:22:51;3.83;;;2.30;;
1336;SDS011;662;48.814;9.318;2023-09-19T07:25:17;3.53;;;1.77;;
1336;SDS011;662;48.814;9.318;2023-09-19T07:27:43;3.93;;;1.97;;
1336;SDS011;662;48.814;9.318;2023-09-19T07:30:10;1.90;;;1.77;;
1336;SDS011;662;48.814;9.318;2023-09-19T07:32:36;5.80;;;3.30;;
1336;SDS011;662;48.814;9.318;2023-09-19T07:35:03;2.10;;;1.90;;
1336;SDS011;662;48.814;9.318;2023-09-19T07:37:33;3.60;;;2.10;;
1336;SDS011;662;48.814;9.318;2023-09-19T07:40:00;2.53;;;2.10;;
1336;SDS011;662;48.814;9.318;2023-09-19T07:42:35;4.70;;;2.10;;
1336;SDS011;662;48.814;9.318;2023-09-19T07:45:04;2.30;;;2.03;;
1336;SDS011;662;48.814;9.318;2023-09-19T07:47:30;2.57;;;2.37;;
1336;SDS011;662;48.814;9.318;2023-09-19T07:49:57;2.33;;;1.80;;
1336;SDS011;662;48.814;9.318;2023-09-19T07:52:24;3.47;;;2.13;;
1336;SDS011;662;48.814;9.318;2023-09-19T07:54:49;2.03;;;1.83;;
1336;SDS011;662;48.814;9.318;2023-09-19T07:57:15;3.00;;;1.80;;
1336;SDS011;662;48.814;9.318;2023-09-19T07:59:41;2.77;;;1.63;;
1336;SDS011;662;48.814;9.318;2023-09-19T08:02:07;1.73;;;1.40;;
1336;SDS011;662;48.814;9.318;2023-09-19T08:04:35;3.70;;;1.93;;
1336;SDS011;662;48.814;9.318;2023-09-19T08:07:00;3.10;;;1.87;;
1336;SDS011;662;48.814;9.318;2023-09-19T08:09:29;2.80;;;1.90;;
1336;SDS011;662;48.814;9.318;2023-09-19T08:11:58;3.80;;;2.10;;
1336;SDS011;662;48.814;9.318;2023-09-19T08:14:24;4.67;;;1.37;;
1336;SDS011;662;48.814;9.318;2023-09-19T08:16:51;2.10;;;1.87;;
1336;SDS011;662;48.814;9.318;2023-09-19T08:19:16;2.40;;;1.70;;
1336;SDS011;662;48.814;9.318;2023-09-19T08:21:42;2.00;;;1.80;;
1336;SDS011;662;48.814;9.318;2023-09-19T08:24:12;5.17;;;1.87;;
1336;SDS011;662;48.814;9.318;2023-09-19T08:26:39;2.20;;;1.87;;
1336;SDS011;662;48.814;9.318;2023-09-19T08:29:05;2.77;;;1.53;;
1336;SDS011;662;48.814;9.318;2023-09-19T08:31:32;1.97;;;1.80;;
1336;SDS011;662;48.814;9.318;2023-09-19T08:33:58;1.87;;;1.40;;
1336;SDS011;662;48.814;9.318;2023-09-19T08:36:25;2.10;;;1.50;;
1336;SDS011;662;48.814;9.318;2023-09-19T08:38:50;1.57;;;1.30;;
1336;SDS011;662;48.814;9.318;2023-09-19T08:41:17;2.50;;;1.40;;
1336;SDS011;662;48.814;9.318;2023-09-19T08:43:43;2.30;;;1.50;;
1336;SDS011;662;48.814;9.318;2023-09-19T08:46:12;3.47;;;1.50;;
1336;SDS011;662;48.814;9.318;2023-09-19T08:48:49;2.67;;;2.07;;
1336;SDS011;662;48.814;9.318;2023-09-19T08:51:27;2.83;;;1.50;;
1336;SDS011;662;48.814;9.318;2023-09-19T08:56:34;2.37;;;1.30;;
1336;SDS011;662;48.814;9.318;2023-09-19T08:59:05;2.23;;;1.50;;
1336;SDS011;662;48.814;9.318;2023-09-19T09:01:34;0.93;;;0.93;;
1336;SDS011;662;48.814;9.318;2023-09-19T09:04:01;1.13;;;1.03;;
1336;SDS011;662;48.814;9.318;2023-09-19T09:06:28;2.70;;;1.40;;
1336;SDS011;662;48.814;9.318;2023-09-19T09:08:54;4.57;;;1.50;;
1336;SDS011;662;48.814;9.318;2023-09-19T09:11:20;2.47;;;1.60;;
1336;SDS011;662;48.814;9.318;2023-09-19T09:13:47;2.10;;;1.13;;
1336;SDS011;662;48.814;9.318;2023-09-19T09:16:13;1.40;;;1.30;;
1336;SDS011;662;48.814;9.318;2023-09-19T09:18:44;1.63;;;1.07;;
1336;SDS011;662;48.814;9.318;2023-09-19T09:21:10;1.90;;;1.33;;
1336;SDS011;662;48.814;9.318;2023-09-19T09:23:36;2.40;;;1.67;;
1336;SDS011;662;48.814;9.318;2023-09-19T09:26:02;1.60;;;1.10;;
1336;SDS011;662;48.814;9.318;2023-09-19T09:28:29;1.60;;;1.23;;
1336;SDS011;662;48.814;9.318;2023-09-19T09:30:56;2.57;;;1.27;;
1336;SDS011;662;48.814;9.318;2023-09-19T09:33:28;2.00;;;1.60;;
1336;SDS011;662;48.814;9.318;2023-09-19T09:35:55;1.43;;;1.23;;
1336;SDS011;662;48.814;9.318;2023-09-19T09:38:26;1.23;;;1.07;;
1336;SDS011;662;48.814;9.318;2023-09-19T09:40:54;1.57;;;1.17;;
1336;SDS011;662;48.814;9.318;2023-09-19T09:43:34;2.70;;;0.97;;
1336;SDS011;662;48.814;9.318;2023-09-19T09:46:18;1.33;;;0.97;;
1336;SDS011;662;48.814;9.318;2023-09-19T09:48:48;2.03;;;1.43;;
1336;SDS011;662;48.814;9.318;2023-09-19T09:51:39;1.30;;;1.07;;
1336;SDS011;662;48.814;9.318;2023-09-19T09:54:17;1.17;;;1.00;;
1336;SDS011;662;48.814;9.318;2023-09-19T09:56:59;1.83;;;1.40;;
1336;SDS011;662;48.814;9.318;2023-09-19T10:02:30;1.80;;;1.40;;
1336;SDS011;662;48.814;9.318;2023-09-19T10:07:53;1.17;;;1.07;;
1336;SDS011;662;48.814;9.318;2023-09-19T10:10:37;2.43;;;1.40;;
1336;SDS011;662;48.814;9.318;2023-09-19T10:13:06;1.00;;;0.90;;
1336;SDS011;662;48.814;9.318;2023-09-19T10:15:37;1.67;;;1.20;;
1336;SDS011;662;48.814;9.318;2023-09-19T10:18:06;1.60;;;1.23;;
1336;SDS011;662;48.814;9.318;2023-09-19T10:20:43;1.63;;;1.20;;
1336;SDS011;662;48.814;9.318;2023-09-19T10:23:12;1.63;;;0.90;;
1336;SDS011;662;48.814;9.318;2023-09-19T10:25:39;1.33;;;1.20;;
1336;SDS011;662;48.814;9.318;2023-09-19T10:28:09;1.67;;;1.13;;
1336;SDS011;662;48.814;9.318;2023-09-19T10:30:46;1.17;;;1.07;;
1336;SDS011;662;48.814;9.318;2023-09-19T10:33:27;1.10;;;1.00;;
1336;SDS011;662;48.814;9.318;2023-09-19T10:36:01;2.30;;;1.13;;
1336;SDS011;662;48.814;9.318;2023-09-19T10:38:30;2.97;;;1.13;;
1336;SDS011;662;48.814;9.318;2023-09-19T10:40:58;2.03;;;1.27;;
1336;SDS011;662;48.814;9.318;2023-09-19T10:43:25;1.40;;;0.97;;
1336;SDS011;662;48.814;9.318;2023-09-19T10:45:55;1.20;;;1.10;;
1336;SDS011;662;48.814;9.318;2023-09-19T10:48:25;1.50;;;1.13;;
1336;SDS011;662;48.814;9.318;2023-09-19T10:51:09;1.80;;;1.20;;
1336;SDS011;662;48.814;9.318;2023-09-19T10:53:42;1.30;;;1.00;;
1336;SDS011;662;48.814;9.318;2023-09-19T10:56:32;1.17;;;1.03;;
1336;SDS011;662;48.814;9.318;2023-09-19T10:59:05;1.90;;;1.37;;
1336;SDS011;662;48.814;9.318;2023-09-19T11:02:15;1.63;;;1.00;;
1336;SDS011;662;48.814;9.318;2023-09-19T11:04:40;1.47;;;1.30;;
1336;SDS011;662;48.814;9.318;2023-09-19T11:07:13;1.77;;;1.10;;
1336;SDS011;662;48.814;9.318;2023-09-19T11:15:00;1.43;;;1.00;;
1336;SDS011;662;48.814;9.318;2023-09-19T11:30:43;1.07;;;0.97;;
1336;SDS011;662;48.814;9.318;2023-09-19T11:33:25;2.03;;;1.03;;
1336;SDS011;662;48.814;9.318;2023-09-19T11:35:59;1.10;;;1.00;;
1336;SDS011;662;48.814;9.318;2023-09-19T11:46:24;0.70;;;0.70;;
1336;SDS011;662;48.814;9.318;2023-09-19T11:48:53;1.87;;;0.93;;
1336;SDS011;662;48.814;9.318;2023-09-19T11:51:20;2.23;;;1.13;;
1336;SDS011;662;48.814;9.318;2023-09-19T11:53:49;1.20;;;1.10;;
1336;SDS011;662;48.814;9.318;2023-09-19T11:56:15;3.50;;;1.10;;
1336;SDS011;662;48.814;9.318;2023-09-19T11:58:43;0.60;;;0.60;;
1336;SDS011;662;48.814;9.318;2023-09-19T12:01:11;0.90;;;0.80;;
1336;SDS011;662;48.814;9.318;2023-09-19T12:03:40;2.77;;;1.03;;
1336;SDS011;662;48.814;9.318;2023-09-19T12:06:12;1.50;;;1.20;;
1336;SDS011;662;48.814;9.318;2023-09-19T12:08:40;1.00;;;0.90;;
1336;SDS011;662;48.814;9.318;2023-09-19T12:11:11;0.80;;;0.77;;
1336;SDS011;662;48.814;9.318;2023-09-19T12:13:47;1.50;;;1.10;;
1336;SDS011;662;48.814;9.318;2023-09-19T12:16:16;1.10;;;1.00;;
1336;SDS011;662;48.814;9.318;2023-09-19T12:18:46;1.23;;;0.90;;
1336;SDS011;662;48.814;9.318;2023-09-19T12:21:52;0.90;;;0.87;;
1336;SDS011;662;48.814;9.318;2023-09-19T12:24:16;1.87;;;1.10;;
1336;SDS011;662;48.814;9.318;2023-09-19T12:26:45;0.97;;;0.90;;
1336;SDS011;662;48.814;9.318;2023-09-19T12:29:20;1.60;;;1.10;;
1336;SDS011;662;48.814;9.318;2023-09-19T12:34:29;1.00;;;0.90;;
1336;SDS011;662;48.814;9.318;2023-09-19T12:37:05;1.50;;;0.90;;
1336;SDS011;662;48.814;9.318;2023-09-19T12:39:37;2.07;;;1.10;;
1336;SDS011;662;48.814;9.318;2023-09-19T12:42:18;1.10;;;0.70;;
1336;SDS011;662;48.814;9.318;2023-09-19T12:44:46;1.77;;;1.10;;
1336;SDS011;662;48.814;9.318;2023-09-19T12:47:14;1.00;;;0.90;;
1336;SDS011;662;48.814;9.318;2023-09-19T12:52:54;2.50;;;0.90;;
1336;SDS011;662;48.814;9.318;2023-09-19T12:55:30;1.23;;;0.97;;
1336;SDS011;662;48.814;9.318;2023-09-19T12:58:13;2.70;;;1.00;;
1336;SDS011;662;48.814;9.318;2023-09-19T13:00:43;1.50;;;0.80;;
1336;SDS011;662;48.814;9.318;2023-09-19T13:05:46;3.27;;;1.00;;
1336;SDS011;662;48.814;9.318;2023-09-19T13:08:28;2.60;;;1.10;;
1336;SDS011;662;48.814;9.318;2023-09-19T13:11:17;1.30;;;1.10;;
1336;SDS011;662;48.814;9.318;2023-09-19T13:13:44;1.27;;;1.17;;
1336;SDS011;662;48.814;9.318;2023-09-19T13:16:14;2.03;;;1.30;;
1336;SDS011;662;48.814;9.318;2023-09-19T13:18:45;2.67;;;1.33;;
1336;SDS011;662;48.814;9.318;2023-09-19T13:21:13;1.53;;;1.10;;
1336;SDS011;662;48.814;9.318;2023-09-19T13:23:49;1.97;;;0.93;;
1336;SDS011;662;48.814;9.318;2023-09-19T13:26:15;2.10;;;1.07;;
1336;SDS011;662;48.814;9.318;2023-09-19T13:28:41;1.60;;;1.20;;
1336;SDS011;662;48.814;9.318;2023-09-19T13:31:07;1.80;;;1.17;;
1336;SDS011;662;48.814;9.318;2023-09-19T13:33:35;1.13;;;1.03;;
1336;SDS011;662;48.814;9.318;2023-09-19T13:36:08;1.50;;;1.40;;
1336;SDS011;662;48.814;9.318;2023-09-19T13:38:34;1.83;;;1.30;;
1336;SDS011;662;48.814;9.318;2023-09-19T13:41:00;2.27;;;1.20;;
1336;SDS011;662;48.814;9.318;2023-09-19T13:43:26;2.90;;;1.77;;
1336;SDS011;662;48.814;9.318;2023-09-19T13:45:54;1.10;;;0.87;;
1336;SDS011;662;48.814;9.318;2023-09-19T13:48:19;2.97;;;1.43;;
1336;SDS011;662;48.814;9.318;2023-09-19T13:50:48;1.17;;;1.07;;
1336;SDS011;662;48.814;9.318;2023-09-19T13:53:14;0.93;;;0.80;;
1336;SDS011;662;48.814;9.318;2023-09-19T13:55:39;1.70;;;1.00;;
1336;SDS011;662;48.814;9.318;2023-09-19T13:58:06;1.40;;;1.20;;
1336;SDS011;662;48.814;9.318;2023-09-19T14:00:36;1.80;;;1.00;;
1336;SDS011;662;48.814;9.318;2023-09-19T14:03:01;1.70;;;1.10;;
1336;SDS011;662;48.814;9.318;2023-09-19T14:05:29;3.90;;;1.13;;
1336;SDS011;662;48.814;9.318;2023-09-19T14:07:55;1.50;;;1.20;;
1336;SDS011;662;48.814;9.318;2023-09-19T14:10:22;1.10;;;1.00;;
1336;SDS011;662;48.814;9.318;2023-09-19T14:12:48;1.67;;;1.13;;
1336;SDS011;662;48.814;9.318;2023-09-19T14:15:13;1.70;;;1.20;;
1336;SDS011;662;48.814;9.318;2023-09-19T14:17:39;1.40;;;1.07;;
1336;SDS011;662;48.814;9.318;2023-09-19T14:20:10;1.00;;;0.90;;
1336;SDS011;662;48.814;9.318;2023-09-19T14:22:36;1.33;;;1.23;;
1336;SDS011;662;48.814;9.318;2023-09-19T14:25:02;2.43;;;1.33;;
1336;SDS011;662;48.814;9.318;2023-09-19T14:27:29;1.20;;;1.10;;
1336;SDS011;662;48.814;9.318;2023-09-19T14:29:55;2.10;;;1.30;;
1336;SDS011;662;48.814;9.318;2023-09-19T14:32:22;1.53;;;0.80;;
1336;SDS011;662;48.814;9.318;2023-09-19T14:34:48;1.40;;;1.27;;
1336;SDS011;662;48.814;9.318;2023-09-19T14:37:14;3.47;;;1.30;;
1336;SDS011;662;48.814;9.318;2023-09-19T14:39:41;1.20;;;1.10;;
1336;SDS011;662;48.814;9.318;2023-09-19T14:42:10;1.10;;;1.00;;
1336;SDS011;662;48.814;9.318;2023-09-19T14:44:36;1.27;;;1.07;;
1336;SDS011;662;48.814;9.318;2023-09-19T14:47:04;1.07;;;0.97;;
1336;SDS011;662;48.814;9.318;2023-09-19T14:49:33;1.60;;;1.50;;
1336;SDS011;662;48.814;9.318;2023-09-19T14:51:59;1.40;;;1.30;;
1336;SDS011;662;48.814;9.318;2023-09-19T14:54:28;1.43;;;1.00;;
1336;SDS011;662;48.814;9.318;2023-09-19T14:56:55;1.83;;;1.50;;
1336;SDS011;662;48.814;9.318;2023-09-19T14:59:29;1.70;;;1.20;;
1336;SDS011;662;48.814;9.318;2023-09-19T15:01:56;1.23;;;1.13;;
1336;SDS011;662;48.814;9.318;2023-09-19T15:04:23;2.00;;;1.23;;
1336;SDS011;662;48.814;9.318;2023-09-19T15:06:49;1.73;;;1.07;;
1336;SDS011;662;48.814;9.318;2023-09-19T15:09:16;1.50;;;1.13;;
1336;SDS011;662;48.814;9.318;2023-09-19T15:11:44;1.73;;;1.10;;
1336;SDS011;662;48.814;9.318;2023-09-19T15:14:09;1.50;;;1.27;;
1336;SDS011;662;48.814;9.318;2023-09-19T15:16:37;1.40;;;1.30;;
1336;SDS011;662;48.814;9.318;2023-09-19T15:19:02;1.10;;;0.87;;
1336;SDS011;662;48.814;9.318;2023-09-19T15:21:28;2.03;;;1.53;;
1336;SDS011;662;48.814;9.318;2023-09-19T15:23:54;1.80;;;1.20;;
1336;SDS011;662;48.814;9.318;2023-09-19T15:26:19;2.60;;;1.47;;
1336;SDS011;662;48.814;9.318;2023-09-19T15:28:45;1.50;;;1.10;;
1336;SDS011;662;48.814;9.318;2023-09-19T15:31:11;2.13;;;1.17;;
1336;SDS011;662;48.814;9.318;2023-09-19T15:33:38;1.43;;;1.23;;
1336;SDS011;662;48.814;9.318;2023-09-19T15:36:04;1.30;;;0.90;;
1336;SDS011;662;48.814;9.318;2023-09-19T15:41:31;1.20;;;1.07;;
1336;SDS011;662;48.814;9.318;2023-09-19T15:43:59;1.00;;;0.90;;
1336;SDS011;662;48.814;9.318;2023-09-19T15:46:28;1.90;;;1.33;;
1336;SDS011;662;48.814;9.318;2023-09-19T15:49:01;3.60;;;1.30;;
1336;SDS011;662;48.814;9.318;2023-09-19T15:51:27;1.17;;;1.07;;
1336;SDS011;662;48.814;9.318;2023-09-19T15:53:53;1.20;;;1.10;;
1336;SDS011;662;48.814;9.318;2023-09-19T15:56:21;3.20;;;1.03;;
1336;SDS011;662;48.814;9.318;2023-09-19T15:58:51;1.20;;;1.10;;
1336;SDS011;662;48.814;9.318;2023-09-19T16:01:21;1.30;;;1.20;;
1336;SDS011;662;48.814;9.318;2023-09-19T16:03:48;1.23;;;1.00;;
1336;SDS011;662;48.814;9.318;2023-09-19T16:06:19;2.90;;;1.50;;
1336;SDS011;662;48.814;9.318;2023-09-19T16:08:49;1.77;;;1.23;;
1336;SDS011;662;48.814;9.318;2023-09-19T16:11:17;1.90;;;1.63;;
1336;SDS011;662;48.814;9.318;2023-09-19T16:13:45;1.50;;;1.30;;
1336;SDS011;662;48.814;9.318;2023-09-19T16:16:12;1.70;;;1.33;;
1336;SDS011;662;48.814;9.318;2023-09-19T16:18:47;1.93;;;1.20;;
1336;SDS011;662;48.814;9.318;2023-09-19T16:21:16;1.73;;;1.00;;
1336;SDS011;662;48.814;9.318;2023-09-19T16:23:44;2.37;;;1.40;;
1336;SDS011;662;48.814;9.318;2023-09-19T16:26:14;1.50;;;1.10;;
1336;SDS011;662;48.814;9.318;2023-09-19T16:28:41;1.20;;;1.10;;
1336;SDS011;662;48.814;9.318;2023-09-19T16:31:09;0.70;;;0.70;;
1336;SDS011;662;48.814;9.318;2023-09-19T16:33:35;0.93;;;0.90;;
1336;SDS011;662;48.814;9.318;2023-09-19T16:36:07;1.43;;;1.00;;
1336;SDS011;662;48.814;9.318;2023-09-19T16:38:34;1.33;;;1.00;;
1336;SDS011;662;48.814;9.318;2023-09-19T16:41:00;3.50;;;1.10;;